sensor_id;sensor_type;location;lat;lon;timestamp;pressure;altitude;pressure_sealevel;temperature;humidity
77011;BME280;65945;53.148;17.956;2024-02-21T00:01:18;101560.81;;;5.53;96.37
77011;BME280;65945;53.148;17.956;2024-02-21T00:03:44;101560.77;;;5.53;96.59
77011;BME280;65945;53.148;17.956;2024-02-21T00:06:11;101558.05;;;5.53;96.77
77011;BME280;65945;53.148;17.956;2024-02-21T00:08:37;101558.56;;;5.54;96.34
77011;BME280;65945;53.148;17.956;2024-02-21T00:11:04;101556.46;;;5.56;96.35
77011;BME280;65945;53.148;17.956;2024-02-21T00:13:31;101558.81;;;5.58;96.63
77011;BME280;65945;53.148;17.956;2024-02-21T00:15:57;101555.49;;;5.59;96.53
77011;BME280;65945;53.148;17.956;2024-02-21T00:18:24;101550.91;;;5.60;96.55
77011;BME280;65945;53.148;17.956;2024-02-21T00:20:51;101549.49;;;5.62;96.73
77011;BME280;65945;53.148;17.956;2024-02-21T00:23:17;101552.02;;;5.64;96.39
77011;BME280;65945;53.148;17.956;2024-02-21T00:25:44;101547.44;;;5.65;96.69
77011;BME280;65945;53.148;17.956;2024-02-21T00:28:11;101546.94;;;5.66;96.63
77011;BME280;65945;53.148;17.956;2024-02-21T00:30:38;101547.35;;;5.66;96.67
77011;BME280;65945;53.148;17.956;2024-02-21T00:33:05;101542.20;;;5.67;96.62
77011;BME280;65945;53.148;17.956;2024-02-21T00:35:31;101534.39;;;5.67;96.39
77011;BME280;65945;53.148;17.956;2024-02-21T00:37:58;101533.69;;;5.67;96.41
77011;BME280;65945;53.148;17.956;2024-02-21T00:40:26;101535.20;;;5.67;96.51
77011;BME280;65945;53.148;17.956;2024-02-21T00:42:52;101536.20;;;5.66;96.18
77011;BME280;65945;53.148;17.956;2024-02-21T00:45:19;101531.46;;;5.65;96.32
77011;BME280;65945;53.148;17.956;2024-02-21T00:47:46;101532.95;;;5.64;96.72
77011;BME280;65945;53.148;17.956;2024-02-21T00:50:12;101529.41;;;5.64;96.43
77011;BME280;65945;53.148;17.956;2024-02-21T00:52:39;101527.90;;;5.63;96.29
77011;BME280;65945;53.148;17.956;2024-02-21T00:55:07;101526.27;;;5.62;96.56
77011;BME280;65945;53.148;17.956;2024-02-21T00:57:34;101519.27;;;5.61;96.22
77011;BME280;65945;53.148;17.956;2024-02-21T01:00:02;101516.20;;;5.60;96.31
77011;BME280;65945;53.148;17.956;2024-02-21T01:02:29;101517.48;;;5.60;96.63
77011;BME280;65945;53.148;17.956;2024-02-21T01:04:58;101513.56;;;5.59;96.50
77011;BME280;65945;53.148;17.956;2024-02-21T01:07:24;101512.52;;;5.58;96.68
77011;BME280;65945;53.148;17.956;2024-02-21T01:09:51;101509.56;;;5.58;96.75
77011;BME280;65945;53.148;17.956;2024-02-21T01:12:18;101506.59;;;5.58;96.69
77011;BME280;65945;53.148;17.956;2024-02-21T01:14:44;101507.85;;;5.59;96.72
77011;BME280;65945;53.148;17.956;2024-02-21T01:17:13;101499.35;;;5.59;97.05
77011;BME280;65945;53.148;17.956;2024-02-21T01:19:39;101499.30;;;5.59;97.05
77011;BME280;65945;53.148;17.956;2024-02-21T01:22:06;101497.02;;;5.59;97.20
77011;BME280;65945;53.148;17.956;2024-02-21T01:24:33;101493.87;;;5.60;96.74
77011;BME280;65945;53.148;17.956;2024-02-21T01:27:00;101491.66;;;5.61;96.93
77011;BME280;65945;53.148;17.956;2024-02-21T01:29:26;101485.23;;;5.62;96.94
77011;BME280;65945;53.148;17.956;2024-02-21T01:31:53;101483.30;;;5.64;96.73
77011;BME280;65945;53.148;17.956;2024-02-21T01:34:20;101481.62;;;5.65;96.72
77011;BME280;65945;53.148;17.956;2024-02-21T01:36:46;101479.96;;;5.65;97.40
77011;BME280;65945;53.148;17.956;2024-02-21T01:39:13;101479.35;;;5.67;96.89
77011;BME280;65945;53.148;17.956;2024-02-21T01:41:40;101482.95;;;5.67;97.02
77011;BME280;65945;53.148;17.956;2024-02-21T01:44:06;101480.92;;;5.67;96.90
77011;BME280;65945;53.148;17.956;2024-02-21T01:46:33;101474.02;;;5.67;96.68
77011;BME280;65945;53.148;17.956;2024-02-21T01:49:01;101470.71;;;5.68;96.74
77011;BME280;65945;53.148;17.956;2024-02-21T01:51:28;101467.38;;;5.68;96.94
77011;BME280;65945;53.148;17.956;2024-02-21T01:53:55;101460.41;;;5.68;96.88
77011;BME280;65945;53.148;17.956;2024-02-21T01:56:24;101462.01;;;5.68;96.78
77011;BME280;65945;53.148;17.956;2024-02-21T01:58:51;101463.41;;;5.67;96.97
77011;BME280;65945;53.148;17.956;2024-02-21T02:01:18;101461.83;;;5.67;97.00
77011;BME280;65945;53.148;17.956;2024-02-21T02:03:47;101463.29;;;5.68;96.71
77011;BME280;65945;53.148;17.956;2024-02-21T02:06:15;101457.41;;;5.67;96.77
77011;BME280;65945;53.148;17.956;2024-02-21T02:08:42;101452.38;;;5.67;96.56
77011;BME280;65945;53.148;17.956;2024-02-21T02:11:09;101447.66;;;5.66;96.94
77011;BME280;65945;53.148;17.956;2024-02-21T02:13:36;101447.24;;;5.66;96.86
77011;BME280;65945;53.148;17.956;2024-02-21T02:16:02;101445.90;;;5.65;96.72
77011;BME280;65945;53.148;17.956;2024-02-21T02:18:30;101442.66;;;5.62;96.98
77011;BME280;65945;53.148;17.956;2024-02-21T02:20:56;101441.77;;;5.61;96.94
77011;BME280;65945;53.148;17.956;2024-02-21T02:23:30;101439.79;;;5.59;97.05
77011;BME280;65945;53.148;17.956;2024-02-21T02:26:00;101440.36;;;5.57;97.31
77011;BME280;65945;53.148;17.956;2024-02-21T02:28:30;101434.98;;;5.55;96.94
77011;BME280;65945;53.148;17.956;2024-02-21T02:30:56;101431.84;;;5.54;97.05
77011;BME280;65945;53.148;17.956;2024-02-21T02:33:23;101431.77;;;5.52;97.05
77011;BME280;65945;53.148;17.956;2024-02-21T02:35:50;101428.69;;;5.52;97.25
77011;BME280;65945;53.148;17.956;2024-02-21T02:38:16;101427.02;;;5.51;97.26
77011;BME280;65945;53.148;17.956;2024-02-21T02:40:43;101425.14;;;5.51;97.33
77011;BME280;65945;53.148;17.956;2024-02-21T02:43:10;101418.92;;;5.49;97.55
77011;BME280;65945;53.148;17.956;2024-02-21T02:45:36;101417.17;;;5.49;97.47
77011;BME280;65945;53.148;17.956;2024-02-21T02:48:04;101414.84;;;5.49;97.55
77011;BME280;65945;53.148;17.956;2024-02-21T02:50:30;101414.71;;;5.50;97.45
77011;BME280;65945;53.148;17.956;2024-02-21T02:52:57;101417.73;;;5.51;97.26
77011;BME280;65945;53.148;17.956;2024-02-21T02:55:24;101413.84;;;5.52;97.14
77011;BME280;65945;53.148;17.956;2024-02-21T02:57:50;101409.88;;;5.53;97.19
77011;BME280;65945;53.148;17.956;2024-02-21T03:00:17;101408.57;;;5.52;97.32
77011;BME280;65945;53.148;17.956;2024-02-21T03:02:45;101407.29;;;5.53;97.21
77011;BME280;65945;53.148;17.956;2024-02-21T03:05:14;101406.23;;;5.53;97.17
77011;BME280;65945;53.148;17.956;2024-02-21T03:07:41;101397.77;;;5.53;97.33
77011;BME280;65945;53.148;17.956;2024-02-21T03:10:09;101398.39;;;5.54;97.29
77011;BME280;65945;53.148;17.956;2024-02-21T03:12:36;101398.50;;;5.54;97.36
77011;BME280;65945;53.148;17.956;2024-02-21T03:15:04;101392.70;;;5.55;97.35
77011;BME280;65945;53.148;17.956;2024-02-21T03:17:32;101393.32;;;5.55;97.40
77011;BME280;65945;53.148;17.956;2024-02-21T03:20:04;101393.95;;;5.56;97.48
77011;BME280;65945;53.148;17.956;2024-02-21T03:22:32;101393.40;;;5.57;97.51
77011;BME280;65945;53.148;17.956;2024-02-21T03:25:02;101389.89;;;5.58;97.59
77011;BME280;65945;53.148;17.956;2024-02-21T03:27:28;101388.10;;;5.59;97.52
77011;BME280;65945;53.148;17.956;2024-02-21T03:29:55;101389.27;;;5.61;97.43
77011;BME280;65945;53.148;17.956;2024-02-21T03:32:22;101387.23;;;5.63;97.54
77011;BME280;65945;53.148;17.956;2024-02-21T03:34:48;101386.69;;;5.63;97.74
77011;BME280;65945;53.148;17.956;2024-02-21T03:37:15;101384.73;;;5.64;97.44
77011;BME280;65945;53.148;17.956;2024-02-21T03:39:42;101381.45;;;5.65;97.39
77011;BME280;65945;53.148;17.956;2024-02-21T03:42:08;101377.80;;;5.66;97.51
77011;BME280;65945;53.148;17.956;2024-02-21T03:44:36;101375.07;;;5.68;97.48
77011;BME280;65945;53.148;17.956;2024-02-21T03:47:03;101377.27;;;5.69;97.34
77011;BME280;65945;53.148;17.956;2024-02-21T03:49:29;101374.39;;;5.69;97.13
77011;BME280;65945;53.148;17.956;2024-02-21T03:51:56;101371.05;;;5.69;97.64
77011;BME280;65945;53.148;17.956;2024-02-21T03:54:23;101372.63;;;5.70;97.80
77011;BME280;65945;53.148;17.956;2024-02-21T03:56:49;101366.55;;;5.71;97.68
77011;BME280;65945;53.148;17.956;2024-02-21T03:59:16;101364.71;;;5.72;97.84
77011;BME280;65945;53.148;17.956;2024-02-21T04:01:43;101366.87;;;5.73;97.69
77011;BME280;65945;53.148;17.956;2024-02-21T04:04:10;101362.95;;;5.75;97.86
77011;BME280;65945;53.148;17.956;2024-02-21T04:06:37;101362.34;;;5.76;97.65
77011;BME280;65945;53.148;17.956;2024-02-21T04:09:03;101359.30;;;5.76;97.75
77011;BME280;65945;53.148;17.956;2024-02-21T04:11:31;101359.45;;;5.78;97.73
77011;BME280;65945;53.148;17.956;2024-02-21T04:13:57;101355.67;;;5.78;97.47
77011;BME280;65945;53.148;17.956;2024-02-21T04:16:24;101354.86;;;5.78;97.90
77011;BME280;65945;53.148;17.956;2024-02-21T04:18:50;101349.34;;;5.79;97.67
77011;BME280;65945;53.148;17.956;2024-02-21T04:21:17;101348.30;;;5.79;97.85
77011;BME280;65945;53.148;17.956;2024-02-21T04:23:44;101343.15;;;5.79;97.87
77011;BME280;65945;53.148;17.956;2024-02-21T04:26:10;101339.78;;;5.80;97.69
77011;BME280;65945;53.148;17.956;2024-02-21T04:28:37;101335.21;;;5.81;97.61
77011;BME280;65945;53.148;17.956;2024-02-21T04:31:04;101330.53;;;5.81;97.54
77011;BME280;65945;53.148;17.956;2024-02-21T04:33:31;101331.36;;;5.82;97.77
77011;BME280;65945;53.148;17.956;2024-02-21T04:35:57;101331.84;;;5.82;97.63
77011;BME280;65945;53.148;17.956;2024-02-21T04:38:25;101328.92;;;5.82;97.54
77011;BME280;65945;53.148;17.956;2024-02-21T04:40:51;101327.80;;;5.82;97.70
77011;BME280;65945;53.148;17.956;2024-02-21T04:43:18;101326.17;;;5.81;97.94
77011;BME280;65945;53.148;17.956;2024-02-21T04:45:45;101322.38;;;5.81;97.67
77011;BME280;65945;53.148;17.956;2024-02-21T04:48:11;101319.13;;;5.80;97.90
77011;BME280;65945;53.148;17.956;2024-02-21T04:50:38;101317.45;;;5.79;97.82
77011;BME280;65945;53.148;17.956;2024-02-21T04:53:04;101314.92;;;5.79;97.92
77011;BME280;65945;53.148;17.956;2024-02-21T04:55:31;101309.68;;;5.79;97.91
77011;BME280;65945;53.148;17.956;2024-02-21T04:57:57;101311.80;;;5.79;97.90
77011;BME280;65945;53.148;17.956;2024-02-21T05:00:24;101307.08;;;5.78;97.63
77011;BME280;65945;53.148;17.956;2024-02-21T05:02:51;101302.55;;;5.77;97.94
77011;BME280;65945;53.148;17.956;2024-02-21T05:05:17;101304.29;;;5.77;97.60
77011;BME280;65945;53.148;17.956;2024-02-21T05:07:44;101298.88;;;5.77;97.94
77011;BME280;65945;53.148;17.956;2024-02-21T05:10:11;101296.50;;;5.76;97.77
77011;BME280;65945;53.148;17.956;2024-02-21T05:12:38;101294.89;;;5.76;97.86
77011;BME280;65945;53.148;17.956;2024-02-21T05:15:05;101288.41;;;5.75;98.11
77011;BME280;65945;53.148;17.956;2024-02-21T05:17:32;101283.07;;;5.74;98.16
77011;BME280;65945;53.148;17.956;2024-02-21T05:19:59;101277.89;;;5.74;97.91
77011;BME280;65945;53.148;17.956;2024-02-21T05:22:26;101278.30;;;5.74;98.15
77011;BME280;65945;53.148;17.956;2024-02-21T05:24:52;101277.22;;;5.75;98.09
77011;BME280;65945;53.148;17.956;2024-02-21T05:27:19;101278.41;;;5.74;98.09
77011;BME280;65945;53.148;17.956;2024-02-21T05:29:45;101273.38;;;5.74;98.26
77011;BME280;65945;53.148;17.956;2024-02-21T05:32:12;101268.59;;;5.73;97.94
77011;BME280;65945;53.148;17.956;2024-02-21T05:34:39;101266.52;;;5.73;98.36
77011;BME280;65945;53.148;17.956;2024-02-21T05:37:06;101265.47;;;5.73;98.10
77011;BME280;65945;53.148;17.956;2024-02-21T05:39:32;101265.36;;;5.74;98.11
77011;BME280;65945;53.148;17.956;2024-02-21T05:41:59;101265.30;;;5.74;98.22
77011;BME280;65945;53.148;17.956;2024-02-21T05:44:26;101262.61;;;5.75;98.25
77011;BME280;65945;53.148;17.956;2024-02-21T05:46:53;101255.98;;;5.76;98.13
77011;BME280;65945;53.148;17.956;2024-02-21T05:49:20;101253.85;;;5.76;98.19
77011;BME280;65945;53.148;17.956;2024-02-21T05:51:46;101255.46;;;5.75;98.50
77011;BME280;65945;53.148;17.956;2024-02-21T05:54:13;101255.09;;;5.75;98.67
77011;BME280;65945;53.148;17.956;2024-02-21T05:56:44;101248.66;;;5.75;98.56
77011;BME280;65945;53.148;17.956;2024-02-21T05:59:10;101248.04;;;5.76;98.47
77011;BME280;65945;53.148;17.956;2024-02-21T06:01:37;101242.92;;;5.77;98.58
77011;BME280;65945;53.148;17.956;2024-02-21T06:04:04;101239.80;;;5.78;98.69
77011;BME280;65945;53.148;17.956;2024-02-21T06:06:31;101238.28;;;5.80;98.72
77011;BME280;65945;53.148;17.956;2024-02-21T06:08:57;101240.54;;;5.81;98.47
77011;BME280;65945;53.148;17.956;2024-02-21T06:11:25;101239.66;;;5.82;98.55
77011;BME280;65945;53.148;17.956;2024-02-21T06:13:52;101241.64;;;5.83;98.58
77011;BME280;65945;53.148;17.956;2024-02-21T06:16:18;101234.48;;;5.84;98.63
77011;BME280;65945;53.148;17.956;2024-02-21T06:18:45;101236.32;;;5.85;98.50
77011;BME280;65945;53.148;17.956;2024-02-21T06:21:11;101230.52;;;5.86;98.40
77011;BME280;65945;53.148;17.956;2024-02-21T06:23:38;101229.55;;;5.87;98.42
77011;BME280;65945;53.148;17.956;2024-02-21T06:26:05;101226.66;;;5.87;98.51
77011;BME280;65945;53.148;17.956;2024-02-21T06:28:32;101228.36;;;5.89;98.50
77011;BME280;65945;53.148;17.956;2024-02-21T06:30:58;101227.88;;;5.90;98.42
77011;BME280;65945;53.148;17.956;2024-02-21T06:33:25;101227.26;;;5.91;98.43
77011;BME280;65945;53.148;17.956;2024-02-21T06:35:52;101224.83;;;5.92;98.30
77011;BME280;65945;53.148;17.956;2024-02-21T06:38:19;101222.35;;;5.94;98.45
77011;BME280;65945;53.148;17.956;2024-02-21T06:40:46;101221.13;;;5.96;98.26
77011;BME280;65945;53.148;17.956;2024-02-21T06:43:17;101220.04;;;5.97;98.25
77011;BME280;65945;53.148;17.956;2024-02-21T06:45:45;101220.16;;;5.98;98.17
77011;BME280;65945;53.148;17.956;2024-02-21T06:48:18;101217.50;;;5.99;98.32
77011;BME280;65945;53.148;17.956;2024-02-21T06:50:45;101216.67;;;6.01;98.37
77011;BME280;65945;53.148;17.956;2024-02-21T06:53:12;101216.01;;;6.03;97.92
77011;BME280;65945;53.148;17.956;2024-02-21T06:55:39;101213.98;;;6.03;98.31
77011;BME280;65945;53.148;17.956;2024-02-21T06:58:05;101213.61;;;6.05;98.28
77011;BME280;65945;53.148;17.956;2024-02-21T07:00:35;101210.73;;;6.07;98.11
77011;BME280;65945;53.148;17.956;2024-02-21T07:03:01;101206.63;;;6.09;98.22
77011;BME280;65945;53.148;17.956;2024-02-21T07:05:29;101201.67;;;6.12;98.16
77011;BME280;65945;53.148;17.956;2024-02-21T07:07:55;101204.84;;;6.15;98.05
77011;BME280;65945;53.148;17.956;2024-02-21T07:10:22;101204.56;;;6.17;98.03
77011;BME280;65945;53.148;17.956;2024-02-21T07:12:49;101196.92;;;6.21;97.96
77011;BME280;65945;53.148;17.956;2024-02-21T07:15:15;101191.19;;;6.24;97.99
77011;BME280;65945;53.148;17.956;2024-02-21T07:17:42;101184.66;;;6.28;98.26
77011;BME280;65945;53.148;17.956;2024-02-21T07:20:09;101180.50;;;6.31;97.68
77011;BME280;65945;53.148;17.956;2024-02-21T07:22:36;101181.53;;;6.33;97.61
77011;BME280;65945;53.148;17.956;2024-02-21T07:25:03;101179.15;;;6.35;97.47
77011;BME280;65945;53.148;17.956;2024-02-21T07:27:29;101182.68;;;6.36;97.58
77011;BME280;65945;53.148;17.956;2024-02-21T07:29:58;101177.13;;;6.35;97.51
77011;BME280;65945;53.148;17.956;2024-02-21T07:32:25;101180.12;;;6.34;97.10
77011;BME280;65945;53.148;17.956;2024-02-21T07:34:51;101177.53;;;6.36;97.26
77011;BME280;65945;53.148;17.956;2024-02-21T07:37:18;101177.66;;;6.38;97.25
77011;BME280;65945;53.148;17.956;2024-02-21T07:39:45;101172.30;;;6.40;97.50
77011;BME280;65945;53.148;17.956;2024-02-21T07:42:11;101172.88;;;6.43;97.39
77011;BME280;65945;53.148;17.956;2024-02-21T07:44:38;101169.65;;;6.46;97.27
77011;BME280;65945;53.148;17.956;2024-02-21T07:47:05;101164.93;;;6.49;97.33
77011;BME280;65945;53.148;17.956;2024-02-21T07:49:40;101170.47;;;6.50;97.31
77011;BME280;65945;53.148;17.956;2024-02-21T07:52:07;101168.54;;;6.51;97.12
77011;BME280;65945;53.148;17.956;2024-02-21T07:54:34;101169.97;;;6.51;97.36
77011;BME280;65945;53.148;17.956;2024-02-21T07:57:00;101166.88;;;6.51;97.13
77011;BME280;65945;53.148;17.956;2024-02-21T07:59:27;101162.79;;;6.51;97.06
77011;BME280;65945;53.148;17.956;2024-02-21T08:01:56;101156.31;;;6.53;97.01
77011;BME280;65945;53.148;17.956;2024-02-21T08:04:24;101152.13;;;6.54;97.20
77011;BME280;65945;53.148;17.956;2024-02-21T08:06:55;101155.14;;;6.57;97.21
77011;BME280;65945;53.148;17.956;2024-02-21T08:09:22;101156.64;;;6.58;97.35
77011;BME280;65945;53.148;17.956;2024-02-21T08:11:49;101156.04;;;6.58;97.27
77011;BME280;65945;53.148;17.956;2024-02-21T08:14:16;101151.73;;;6.58;97.06
77011;BME280;65945;53.148;17.956;2024-02-21T08:16:43;101149.29;;;6.60;97.21
77011;BME280;65945;53.148;17.956;2024-02-21T08:19:10;101145.66;;;6.61;97.08
77011;BME280;65945;53.148;17.956;2024-02-21T08:21:37;101142.66;;;6.63;97.21
77011;BME280;65945;53.148;17.956;2024-02-21T08:24:04;101139.48;;;6.65;97.23
77011;BME280;65945;53.148;17.956;2024-02-21T08:26:31;101134.04;;;6.69;97.37
77011;BME280;65945;53.148;17.956;2024-02-21T08:28:58;101124.23;;;6.73;97.27
77011;BME280;65945;53.148;17.956;2024-02-21T08:31:27;101128.16;;;6.77;97.29
77011;BME280;65945;53.148;17.956;2024-02-21T08:34:01;101131.59;;;6.79;97.21
77011;BME280;65945;53.148;17.956;2024-02-21T08:36:32;101136.47;;;6.78;96.93
77011;BME280;65945;53.148;17.956;2024-02-21T08:38:59;101136.89;;;6.77;96.98
77011;BME280;65945;53.148;17.956;2024-02-21T08:41:27;101138.65;;;6.75;97.10
77011;BME280;65945;53.148;17.956;2024-02-21T08:43:54;101135.54;;;6.74;96.85
77011;BME280;65945;53.148;17.956;2024-02-21T08:46:20;101129.54;;;6.72;97.03
77011;BME280;65945;53.148;17.956;2024-02-21T08:48:48;101132.35;;;6.70;97.02
77011;BME280;65945;53.148;17.956;2024-02-21T08:51:14;101124.21;;;6.68;96.88
77011;BME280;65945;53.148;17.956;2024-02-21T08:53:41;101121.44;;;6.68;97.15
77011;BME280;65945;53.148;17.956;2024-02-21T08:56:08;101119.61;;;6.68;97.12
77011;BME280;65945;53.148;17.956;2024-02-21T08:58:35;101120.59;;;6.69;97.10
77011;BME280;65945;53.148;17.956;2024-02-21T09:01:03;101116.15;;;6.72;97.24
77011;BME280;65945;53.148;17.956;2024-02-21T09:03:32;101113.86;;;6.73;97.06
77011;BME280;65945;53.148;17.956;2024-02-21T09:05:59;101114.34;;;6.77;97.04
77011;BME280;65945;53.148;17.956;2024-02-21T09:08:26;101112.42;;;6.82;97.13
77011;BME280;65945;53.148;17.956;2024-02-21T09:10:53;101110.10;;;6.86;97.43
77011;BME280;65945;53.148;17.956;2024-02-21T09:13:20;101110.83;;;6.90;97.02
77011;BME280;65945;53.148;17.956;2024-02-21T09:15:48;101108.16;;;6.94;97.18
77011;BME280;65945;53.148;17.956;2024-02-21T09:18:15;101111.16;;;6.95;96.96
77011;BME280;65945;53.148;17.956;2024-02-21T09:20:43;101110.69;;;6.96;96.84
77011;BME280;65945;53.148;17.956;2024-02-21T09:23:10;101107.94;;;6.96;96.72
77011;BME280;65945;53.148;17.956;2024-02-21T09:25:37;101111.41;;;6.95;96.74
77011;BME280;65945;53.148;17.956;2024-02-21T09:28:04;101111.70;;;6.95;96.79
77011;BME280;65945;53.148;17.956;2024-02-21T09:30:32;101107.91;;;6.95;96.73
77011;BME280;65945;53.148;17.956;2024-02-21T09:32:59;101103.13;;;6.95;96.53
77011;BME280;65945;53.148;17.956;2024-02-21T09:35:28;101101.56;;;6.96;96.75
77011;BME280;65945;53.148;17.956;2024-02-21T09:37:55;101096.39;;;6.97;96.78
77011;BME280;65945;53.148;17.956;2024-02-21T09:40:21;101098.23;;;6.98;96.53
77011;BME280;65945;53.148;17.956;2024-02-21T09:42:48;101091.33;;;7.00;96.91
77011;BME280;65945;53.148;17.956;2024-02-21T09:45:23;101092.94;;;7.00;96.92
77011;BME280;65945;53.148;17.956;2024-02-21T09:50:40;101083.02;;;6.98;96.90
77011;BME280;65945;53.148;17.956;2024-02-21T09:53:12;101082.04;;;6.97;96.95
77011;BME280;65945;53.148;17.956;2024-02-21T09:55:40;101084.23;;;6.97;97.15
77011;BME280;65945;53.148;17.956;2024-02-21T09:58:08;101088.79;;;6.97;97.07
77011;BME280;65945;53.148;17.956;2024-02-21T10:00:36;101089.11;;;6.97;97.30
77011;BME280;65945;53.148;17.956;2024-02-21T10:03:03;101091.85;;;6.98;97.25
77011;BME280;65945;53.148;17.956;2024-02-21T10:05:36;101094.30;;;7.00;97.46
77011;BME280;65945;53.148;17.956;2024-02-21T10:08:04;101092.20;;;7.02;97.40
77011;BME280;65945;53.148;17.956;2024-02-21T10:10:42;101091.73;;;7.05;97.39
77011;BME280;65945;53.148;17.956;2024-02-21T10:13:10;101099.02;;;7.07;97.47
77011;BME280;65945;53.148;17.956;2024-02-21T10:15:37;101096.30;;;7.07;97.29
77011;BME280;65945;53.148;17.956;2024-02-21T10:18:04;101094.69;;;7.09;97.25
77011;BME280;65945;53.148;17.956;2024-02-21T10:20:33;101091.70;;;7.09;96.97
77011;BME280;65945;53.148;17.956;2024-02-21T10:23:05;101090.17;;;7.10;97.24
77011;BME280;65945;53.148;17.956;2024-02-21T10:25:35;101086.73;;;7.11;97.19
77011;BME280;65945;53.148;17.956;2024-02-21T10:28:04;101077.77;;;7.11;97.21
77011;BME280;65945;53.148;17.956;2024-02-21T10:30:31;101074.91;;;7.12;97.33
77011;BME280;65945;53.148;17.956;2024-02-21T10:32:58;101072.46;;;7.12;97.50
77011;BME280;65945;53.148;17.956;2024-02-21T10:35:29;101072.39;;;7.12;97.22
77011;BME280;65945;53.148;17.956;2024-02-21T10:37:56;101071.48;;;7.12;97.45
77011;BME280;65945;53.148;17.956;2024-02-21T10:40:28;101065.95;;;7.12;97.34
77011;BME280;65945;53.148;17.956;2024-02-21T10:42:59;101065.95;;;7.14;97.42
77011;BME280;65945;53.148;17.956;2024-02-21T10:45:35;101059.36;;;7.17;97.53
77011;BME280;65945;53.148;17.956;2024-02-21T10:50:42;101050.30;;;7.23;97.60
77011;BME280;65945;53.148;17.956;2024-02-21T10:55:56;101035.41;;;7.29;97.44
77011;BME280;65945;53.148;17.956;2024-02-21T10:58:25;101032.90;;;7.33;97.45
77011;BME280;65945;53.148;17.956;2024-02-21T11:00:54;101027.81;;;7.36;97.59
77011;BME280;65945;53.148;17.956;2024-02-21T11:03:21;101023.35;;;7.39;97.27
77011;BME280;65945;53.148;17.956;2024-02-21T11:05:49;101019.11;;;7.43;97.43
77011;BME280;65945;53.148;17.956;2024-02-21T11:08:16;101014.73;;;7.46;97.20
77011;BME280;65945;53.148;17.956;2024-02-21T11:10:46;101011.06;;;7.49;97.15
77011;BME280;65945;53.148;17.956;2024-02-21T11:13:13;101009.63;;;7.50;97.00
77011;BME280;65945;53.148;17.956;2024-02-21T11:15:41;101003.95;;;7.50;97.19
77011;BME280;65945;53.148;17.956;2024-02-21T11:18:07;100999.95;;;7.55;97.27
77011;BME280;65945;53.148;17.956;2024-02-21T11:20:35;100988.36;;;7.62;97.38
77011;BME280;65945;53.148;17.956;2024-02-21T11:23:04;100983.63;;;7.67;97.29
77011;BME280;65945;53.148;17.956;2024-02-21T11:25:30;100978.32;;;7.71;97.13
77011;BME280;65945;53.148;17.956;2024-02-21T11:28:00;100975.30;;;7.72;96.65
77011;BME280;65945;53.148;17.956;2024-02-21T11:30:30;100971.81;;;7.76;96.70
77011;BME280;65945;53.148;17.956;2024-02-21T11:33:01;100967.79;;;7.81;96.66
77011;BME280;65945;53.148;17.956;2024-02-21T11:35:33;100964.68;;;7.83;96.57
77011;BME280;65945;53.148;17.956;2024-02-21T11:38:11;100957.69;;;7.84;96.32
77011;BME280;65945;53.148;17.956;2024-02-21T11:40:45;100957.68;;;7.84;96.25
77011;BME280;65945;53.148;17.956;2024-02-21T11:43:12;100952.14;;;7.84;96.33
77011;BME280;65945;53.148;17.956;2024-02-21T11:45:39;100951.85;;;7.84;96.21
77011;BME280;65945;53.148;17.956;2024-02-21T11:48:06;100954.92;;;7.85;96.32
77011;BME280;65945;53.148;17.956;2024-02-21T11:50:36;100953.05;;;7.84;96.04
77011;BME280;65945;53.148;17.956;2024-02-21T11:53:06;100949.08;;;7.83;96.30
77011;BME280;65945;53.148;17.956;2024-02-21T11:55:32;100951.29;;;7.81;95.99
77011;BME280;65945;53.148;17.956;2024-02-21T11:58:00;100956.84;;;7.82;96.27
77011;BME280;65945;53.148;17.956;2024-02-21T12:00:27;100947.39;;;7.81;96.19
77011;BME280;65945;53.148;17.956;2024-02-21T12:02:54;100958.08;;;7.82;96.24
77011;BME280;65945;53.148;17.956;2024-02-21T12:05:22;100953.83;;;7.84;96.35
77011;BME280;65945;53.148;17.956;2024-02-21T12:07:49;100943.77;;;7.84;96.20
77011;BME280;65945;53.148;17.956;2024-02-21T12:10:15;100939.63;;;7.85;96.29
77011;BME280;65945;53.148;17.956;2024-02-21T12:12:42;100937.02;;;7.85;96.20
77011;BME280;65945;53.148;17.956;2024-02-21T12:15:09;100933.23;;;7.85;95.99
77011;BME280;65945;53.148;17.956;2024-02-21T12:17:36;100931.69;;;7.84;96.06
77011;BME280;65945;53.148;17.956;2024-02-21T12:20:04;100932.30;;;7.84;95.92
77011;BME280;65945;53.148;17.956;2024-02-21T12:22:38;100929.46;;;7.84;95.94
77011;BME280;65945;53.148;17.956;2024-02-21T12:25:25;100928.52;;;7.83;95.66
77011;BME280;65945;53.148;17.956;2024-02-21T12:27:55;100926.90;;;7.82;95.95
77011;BME280;65945;53.148;17.956;2024-02-21T12:30:22;100931.85;;;7.82;96.04
77011;BME280;65945;53.148;17.956;2024-02-21T12:32:49;100935.58;;;7.80;95.86
77011;BME280;65945;53.148;17.956;2024-02-21T12:35:16;100943.62;;;7.79;95.90
77011;BME280;65945;53.148;17.956;2024-02-21T12:37:44;100939.40;;;7.78;95.97
77011;BME280;65945;53.148;17.956;2024-02-21T12:40:11;100933.41;;;7.77;96.20
77011;BME280;65945;53.148;17.956;2024-02-21T12:42:39;100928.08;;;7.77;96.30
77011;BME280;65945;53.148;17.956;2024-02-21T12:45:07;100926.70;;;7.77;96.13
77011;BME280;65945;53.148;17.956;2024-02-21T12:47:34;100926.31;;;7.76;96.32
77011;BME280;65945;53.148;17.956;2024-02-21T12:50:01;100928.77;;;7.77;96.35
77011;BME280;65945;53.148;17.956;2024-02-21T12:52:30;100930.69;;;7.77;96.58
77011;BME280;65945;53.148;17.956;2024-02-21T12:54:57;100929.09;;;7.78;96.52
77011;BME280;65945;53.148;17.956;2024-02-21T12:57:25;100927.84;;;7.77;96.49
77011;BME280;65945;53.148;17.956;2024-02-21T12:59:52;100920.64;;;7.75;96.59